LDRI

Rijeka Airport

Rijeka, Croatia
TAF LDRI 161725Z 1618/1718 VRB02KT 9999 FEW040 TX27/1713Z TN18/1703Z PROB40 TEMPO 1618/1706 3000 TSRA SCT030CB BKN040 TEMPO 1712/1718 32006KT PROB30 TEMPO 1712/1718 TSRA FEW030CB
Issued Valid From Valid To
Jul-16 @ 17:25 UTC
(3 hours ago)
Jul-16 @ 18:00 UTC
(2 hours ago)
Jul-17 @ 18:00 UTC
(in 22 hours)
Jul-16 @ 18:00 to Jul-17 @ 18:00
TAF LDRI 161725Z 1618/1718 VRB02KT 9999 FEW040 TX27/1713Z TN18/1703Z
Wind Visibility Clouds
Variable at 2 knots 10,000+ meters
  • Few at 4,000' AGL
Temporary  (Probability 40%) Jul-16 @ 18:00 to Jul-17 @ 06:00
PROB40 TEMPO 1618/1706 3000 TSRA SCT030CB BKN040
Visibility Clouds Conditions
2,993 meters
  • Scattered at 3,000' AGL
  • Broken at 4,000' AGL
  • Thunderstorm
  • Rain
Temporary Jul-17 @ 12:00 to Jul-17 @ 18:00
TEMPO 1712/1718 32006KT
Wind
320° at 6 knots
Temporary  (Probability 30%) Jul-17 @ 12:00 to Jul-17 @ 18:00
PROB30 TEMPO 1712/1718 TSRA FEW030CB
Clouds Conditions
  • Few at 3,000' AGL
  • Thunderstorm
  • Rain
TAF LDRI 161725Z 1618/1718 VRB02KT 9999 FEW040 TX27/1713Z TN18/1703Z PROB40 TEMPO 1618/1706 3000 TSRA SCT030CB BKN040 TEMPO 1712/1718 32006KT PROB30 TEMPO 1712/1718 TSRA FEW030CB
Issued Jul-16 @ 17:25 UTC
(3 hours ago)
Valid From Jul-16 @ 18:00 UTC
(2 hours ago)
Valid To Jul-17 @ 18:00 UTC
(in 22 hours)
Jul-16 @ 18:00 - Jul-17 @ 18:00
Wind Visibility
Variable at 2 knots 10,000+ meters
Clouds
  • Few at 4,000' AGL
Probability 40% Temporary Jul-16 @ 18:00 - Jul-17 @ 06:00
Clouds
  • Scattered at 3,000' AGL
  • Broken at 4,000' AGL
Conditions
  • Thunderstorm
  • Rain
Temporary Jul-17 @ 12:00 - Jul-17 @ 18:00
Wind
320° at 6 knots
Probability 30% Temporary Jul-17 @ 12:00 - Jul-17 @ 18:00
Clouds
  • Few at 3,000' AGL
Conditions
  • Thunderstorm
  • Rain